Time;durP1;ratioP1;P1;durP2;ratioP2;P2;SDS_P1;SDS_P2;PMS_P1;PMS_P2;Temp;Humidity;BMP_temperature;BMP_pressure;BME280_temperature;BME280_humidity;BME280_pressure;Samples;Min_cycle;Max_cycle;Signal;HPM_P1;HPM_P2
2022/11/15 00:00:17;;;;;;;;;59.75;46.00;;;;;15.25;76.36;101645.34;146614;567;45021;-80
2022/11/15 00:03:36;;;;;;;;;56.00;44.50;;;;;15.25;75.82;101655.78;146611;592;46917;-79
2022/11/15 00:06:42;;;;;;;;;;;;;;;;;;;;;
2022/11/15 00:09:40;;;;;;;;;52.25;43.00;;;;;15.28;75.97;101660.28;146618;565;45018;-81
2022/11/15 00:12:45;;;;;;;;;55.25;43.50;;;;;15.28;75.91;101660.28;146624;626;46010;-76
2022/11/15 00:15:41;;;;;;;;;52.25;42.50;;;;;15.28;75.98;101652.44;146620;630;46014;-76
2022/11/15 00:18:34;;;;;;;;;56.50;44.75;;;;;15.28;76.65;101654.16;146622;583;45020;-76
2022/11/15 00:21:27;;;;;;;;;55.25;43.75;;;;;15.25;76.65;101649.69;146617;633;45918;-77
2022/11/15 00:24:19;;;;;;;;;49.50;41.00;;;;;15.22;76.89;101650.41;146617;576;46030;-76
2022/11/15 00:27:11;;;;;;;;;47.25;39.75;;;;;15.18;76.38;101653.72;146614;578;46016;-76
2022/11/15 00:30:04;;;;;;;;;50.00;39.75;;;;;15.12;76.55;101648.22;146617;686;46021;-77
2022/11/15 00:33:17;;;;;;;;;48.75;40.00;;;;;15.08;76.43;101650.59;146617;566;46016;-75
2022/11/15 00:36:15;;;;;;;;;48.50;39.50;;;;;15.02;76.98;101641.66;146618;628;46021;-73
2022/11/15 00:39:10;;;;;;;;;48.50;38.25;;;;;14.98;76.98;101638.81;146618;570;46012;-75
2022/11/15 00:42:03;;;;;;;;;47.75;38.75;;;;;14.91;77.67;101632.41;146617;618;46020;-74
2022/11/15 00:44:56;;;;;;;;;49.50;41.00;;;;;14.86;77.52;101640.81;146613;577;46014;-74
2022/11/15 00:48:00;;;;;;;;;54.00;42.00;;;;;14.80;77.65;101638.84;146617;632;46020;-74
2022/11/15 00:50:53;;;;;;;;;53.50;42.00;;;;;14.75;77.83;101635.09;146618;581;46918;-74
2022/11/15 00:53:46;;;;;;;;;47.75;39.75;;;;;14.71;78.03;101633.16;146618;575;46021;-74
2022/11/15 00:56:47;;;;;;;;;49.75;42.75;;;;;14.69;77.98;101627.84;146620;575;46012;-74
2022/11/15 00:59:48;;;;;;;;;48.75;39.50;;;;;14.63;77.63;101632.78;146616;622;46010;-75
2022/11/15 01:03:03;;;;;;;;;48.75;39.50;;;;;13.11;77.56;101380.00;146613;603;46014;-75
2022/11/15 01:06:08;;;;;;;;;49.75;39.75;;;;;14.46;77.87;101633.63;146620;781;46021;-74
2022/11/15 01:09:11;;;;;;;;;48.25;39.50;;;;;12.91;77.72;101370.31;146611;580;46040;-75
2022/11/15 01:12:07;;;;;;;;;49.25;39.50;;;;;14.32;78.07;101620.78;146613;755;46020;-75
2022/11/15 01:15:02;;;;;;;;;46.00;37.25;;;;;14.28;78.28;101624.06;146611;578;46012;-74
2022/11/15 01:18:06;;;;;;;;;51.50;40.00;;;;;14.21;78.45;101621.06;146613;588;46010;-74
2022/11/15 01:21:27;;;;;;;;;;;;;;;;;;;;;
2022/11/15 01:24:26;;;;;;;;;48.25;38.75;;;;;14.04;78.38;101614.97;146614;597;46020;-74
2022/11/15 01:27:22;;;;;;;;;45.75;38.00;;;;;13.96;78.19;101609.37;146610;599;46012;-74
2022/11/15 01:30:25;;;;;;;;;50.25;39.75;;;;;13.88;78.32;101609.78;146614;592;46020;-73
2022/11/15 01:33:30;;;;;;;;;44.75;36.75;;;;;12.39;78.15;101365.81;146609;596;46012;-72
2022/11/15 01:36:35;;;;;;;;;45.75;38.00;;;;;13.64;78.40;101602.47;146613;643;46012;-76
2022/11/15 01:39:31;;;;;;;;;47.00;38.00;;;;;13.56;78.64;101609.00;146611;658;46012;-77
2022/11/15 01:42:28;;;;;;;;;42.75;33.75;;;;;13.46;78.62;101605.03;146615;590;46021;-77
2022/11/15 01:45:21;;;;;;;;;41.25;34.75;;;;;13.39;79.11;101602.87;146611;585;46014;-76
2022/11/15 01:48:15;;;;;;;;;45.25;37.25;;;;;13.37;79.44;101608.03;146617;563;45033;-76
2022/11/15 01:51:18;;;;;;;;;45.25;37.00;;;;;13.33;79.03;101624.31;146609;592;46012;-76
2022/11/15 01:54:27;;;;;;;;;39.25;34.25;;;;;13.27;79.24;101607.41;146614;612;46020;-76
2022/11/15 01:57:20;;;;;;;;;42.25;32.75;;;;;13.24;79.02;101613.34;146611;582;46013;-75
2022/11/15 02:00:18;;;;;;;;;41.25;33.75;;;;;13.17;78.46;101608.59;146614;696;46020;-75
2022/11/15 02:03:15;;;;;;;;;42.25;34.75;;;;;13.09;78.33;101612.50;146610;628;46015;-77
2022/11/15 02:06:17;;;;;;;;;38.75;32.25;;;;;13.00;79.24;101609.41;146612;586;46021;-78
2022/11/15 02:09:14;;;;;;;;;35.25;31.00;;;;;12.88;79.59;101605.28;146616;593;47012;-74
2022/11/15 02:12:23;;;;;;;;;35.00;29.50;;;;;12.86;79.60;101616.41;146617;572;46021;-75
2022/11/15 02:15:21;;;;;;;;;35.25;31.50;;;;;12.80;79.65;101611.75;146614;582;46012;-80
2022/11/15 02:18:42;;;;;;;;;36.50;30.00;;;;;11.26;79.34;101356.81;146618;594;46020;-80
2022/11/15 02:22:25;;;;;;;;;34.25;30.00;;;;;11.18;79.03;101348.56;146615;596;46016;-75
2022/11/15 02:26:07;;;;;;;;;37.25;31.75;;;;;11.31;79.50;101382.25;146614;611;46013;-75
2022/11/15 02:29:55;;;;;;;;;36.50;31.00;;;;;11.00;78.99;101351.00;146617;611;45033;-76
2022/11/15 02:32:55;;;;;;;;;34.25;30.00;;;;;12.45;79.92;101617.56;146621;638;45020;-76
2022/11/15 02:36:05;;;;;;;;;36.75;31.75;;;;;12.40;79.81;101619.03;146613;599;46016;-75
2022/11/15 02:39:30;;;;;;;;;31.25;30.00;;;;;12.33;80.25;101611.66;146624;577;46010;-76
2022/11/15 02:46:17;;;;;;;;;32.50;28.00;;;;;12.24;80.30;101614.59;146617;630;48012;-75
2022/11/15 02:49:20;;;;;;;;;35.75;29.00;;;;;12.26;80.76;101613.00;146615;571;45917;-78
2022/11/15 02:52:23;;;;;;;;;29.00;27.00;;;;;12.24;80.38;101612.00;146618;626;46020;-73
2022/11/15 02:55:55;;;;;;;;;35.00;31.75;;;;;10.69;79.46;101356.03;146616;612;46012;-72
2022/11/15 02:59:25;;;;;;;;;33.50;27.25;;;;;12.11;79.53;101607.78;146622;554;46012;-71
2022/11/15 03:03:01;;;;;;;;;30.50;29.50;;;;;12.06;79.91;101614.44;146613;622;46012;-72
2022/11/15 03:06:25;;;;;;;;;32.25;29.00;;;;;12.08;79.92;101615.41;146618;609;46021;-72
2022/11/15 03:10:06;;;;;;;;;;;;;;;;;;;;;
2022/11/15 03:13:28;;;;;;;;;29.50;28.00;;;;;12.04;79.32;101607.34;146614;595;46021;-73
2022/11/15 03:16:51;;;;;;;;;29.00;25.75;;;;;12.06;79.43;101608.34;146614;586;45915;-73
2022/11/15 03:20:03;;;;;;;;;33.75;30.25;;;;;12.06;79.23;101609.25;146616;609;46012;-73
2022/11/15 03:23:08;;;;;;;;;30.50;26.75;;;;;12.04;79.04;101597.84;146613;597;46016;-74
2022/11/15 03:26:05;;;;;;;;;33.50;28.50;;;;;11.99;79.33;101595.00;146614;611;46021;-74
2022/11/15 03:29:21;;;;;;;;;31.75;26.75;;;;;10.47;78.95;101334.81;146612;581;46016;-75
2022/11/15 03:32:43;;;;;;;;;26.25;23.75;;;;;11.94;79.44;101593.81;146615;586;46010;-75
2022/11/15 03:35:58;;;;;;;;;30.75;27.75;;;;;11.93;79.88;101592.03;146613;576;46016;-75
2022/11/15 03:38:50;;;;;;;;;29.00;26.75;;;;;11.89;79.61;101597.81;146613;632;46012;-75
2022/11/15 03:42:22;;;;;;;;;29.25;26.25;;;;;11.77;79.32;101595.38;146610;633;46918;-72
2022/11/15 03:45:40;;;;;;;;;31.75;27.75;;;;;11.71;80.32;101589.81;146614;625;46010;-71
2022/11/15 03:49:01;;;;;;;;;31.75;29.50;;;;;10.35;80.55;101363.44;146610;623;46017;-73
2022/11/15 03:52:05;;;;;;;;;;;;;;;;;;;;;
2022/11/15 03:55:00;;;;;;;;;28.00;25.00;;;;;11.60;80.45;101596.03;146610;576;46012;-74
2022/11/15 03:58:02;;;;;;;;;26.50;25.00;;;;;11.59;80.26;101595.94;146616;564;46020;-74
2022/11/15 04:00:59;;;;;;;;;33.25;26.75;;;;;11.58;80.90;101584.66;146607;613;46016;-73
2022/11/15 04:04:09;;;;;;;;;35.00;31.25;;;;;11.56;80.49;101583.69;146615;597;46010;-73
2022/11/15 04:07:07;;;;;;;;;31.00;29.50;;;;;11.53;80.71;101583.50;146613;645;46014;-73
2022/11/15 04:10:12;;;;;;;;;;;;;;;;;;;;;
2022/11/15 04:13:08;;;;;;;;;32.25;29.00;;;;;11.47;80.96;101580.53;146617;577;46034;-73
2022/11/15 04:16:10;;;;;;;;;36.75;31.00;;;;;10.14;81.16;101344.81;146618;645;46020;-74
2022/11/15 04:25:31;;;;;;;;;33.50;26.25;;;;;11.47;80.58;101589.19;146617;606;46014;-74
2022/11/15 04:28:31;;;;;;;;;38.50;30.25;;;;;11.44;81.30;101576.03;146620;621;46012;-74
2022/11/15 04:31:26;;;;;;;;;34.25;30.00;;;;;11.43;81.36;101582.03;146617;586;46012;-74
2022/11/15 04:34:29;;;;;;;;;30.75;27.25;;;;;11.44;81.72;101580.34;146618;622;46021;-75
2022/11/15 04:37:21;;;;;;;;;33.75;29.75;;;;;11.45;81.75;101576.91;146614;644;46918;-74
2022/11/15 04:40:14;;;;;;;;;34.50;29.25;;;;;11.47;81.97;101575.31;146618;607;46021;-74
2022/11/15 04:43:18;;;;;;;;;35.00;30.25;;;;;11.47;81.87;101573.63;146615;570;46012;-74
2022/11/15 04:46:23;;;;;;;;;37.75;30.50;;;;;11.48;81.65;101570.22;146619;637;46013;-74
2022/11/15 04:49:19;;;;;;;;;34.00;29.75;;;;;11.49;81.29;101572.00;146617;634;46915;-74
2022/11/15 04:52:15;;;;;;;;;32.00;29.75;;;;;11.51;81.29;101574.69;146617;573;46010;-74
2022/11/15 04:55:17;;;;;;;;;40.50;33.50;;;;;11.54;82.13;101578.38;146619;566;46027;-74
2022/11/15 04:58:23;;;;;;;;;39.00;32.25;;;;;11.52;81.77;101572.19;146620;576;46020;-74
2022/11/15 05:01:18;;;;;;;;;37.75;32.00;;;;;11.48;81.67;101575.41;146618;603;46016;-74
2022/11/15 05:04:20;;;;;;;;;43.25;33.75;;;;;11.44;81.59;101578.63;146617;743;48010;-71
2022/11/15 05:07:25;;;;;;;;;40.50;32.75;;;;;9.89;81.26;101307.00;146613;565;46016;-71
2022/11/15 05:10:18;;;;;;;;;35.50;29.75;;;;;11.39;82.34;101577.44;146618;566;46010;-75
2022/11/15 05:13:15;;;;;;;;;34.50;31.50;;;;;11.37;81.86;101580.75;146614;618;46918;-75
2022/11/15 05:16:19;;;;;;;;;37.25;31.50;;;;;11.38;82.32;101574.75;146619;579;46010;-78
2022/11/15 05:19:25;;;;;;;;;33.00;29.75;;;;;11.39;82.47;101577.44;146616;586;46012;-80
2022/11/15 05:22:20;;;;;;;;;36.25;31.25;;;;;11.42;82.48;101566.34;146617;607;46020;-83
2022/11/15 05:25:18;;;;;;;;;32.75;29.75;;;;;11.47;82.79;101576.22;146620;621;45042;-76
2022/11/15 05:28:10;;;;;;;;;40.75;31.00;;;;;11.54;82.46;101578.38;146619;616;46020;-76
2022/11/15 05:31:16;;;;;;;;;34.75;28.75;;;;;11.64;82.74;101584.12;146616;604;46017;-76
2022/11/15 05:34:14;;;;;;;;;41.75;32.75;;;;;11.75;82.63;101586.56;146618;618;46020;-79
2022/11/15 05:37:15;;;;;;;;;35.25;31.00;;;;;11.86;82.40;101588.94;146617;563;46016;-82
2022/11/15 05:40:25;;;;;;;;;;;;;;;;;;;;;
2022/11/15 05:43:22;;;;;;;;;46.50;32.50;;;;;12.04;82.12;101597.84;146618;563;46012;-74
2022/11/15 05:46:54;;;;;;;;;44.00;34.25;;;;;9.56;81.77;101141.75;146619;601;46010;-74
2022/11/15 05:50:07;;;;;;;;;38.00;32.25;;;;;12.24;82.19;101597.31;146617;595;46012;-77
2022/11/15 05:53:04;;;;;;;;;46.00;36.00;;;;;12.34;82.12;101597.84;146622;593;45022;-75
2022/11/15 05:55:57;;;;;;;;;44.75;35.25;;;;;12.39;82.14;101599.00;146615;608;46016;-75
2022/11/15 05:58:55;;;;;;;;;40.25;33.75;;;;;12.44;82.23;101606.28;146621;577;46012;-76
2022/11/15 06:01:50;;;;;;;;;41.00;35.00;;;;;12.47;82.49;101608.16;146617;576;45020;-75
2022/11/15 06:04:51;;;;;;;;;38.00;32.00;;;;;12.53;82.34;101605.00;146623;674;46010;-75
2022/11/15 06:07:55;;;;;;;;;45.25;36.00;;;;;12.60;82.09;101604.53;146618;589;45016;-77
2022/11/15 06:10:48;;;;;;;;;47.00;37.25;;;;;12.65;82.93;101613.53;146617;646;45021;-74
2022/11/15 06:13:58;;;;;;;;;43.25;35.50;;;;;11.25;81.79;101362.84;146619;612;45918;-73
2022/11/15 06:16:54;;;;;;;;;44.25;34.50;;;;;12.76;82.74;101615.00;146616;592;46021;-75
2022/11/15 06:19:50;;;;;;;;;43.75;35.50;;;;;12.80;82.07;101609.16;146614;588;46016;-73
2022/11/15 06:22:54;;;;;;;;;44.50;35.50;;;;;12.86;82.42;101609.50;146621;570;46010;-73
2022/11/15 06:25:52;;;;;;;;;45.50;35.25;;;;;12.92;81.46;101611.56;146617;569;46014;-73
2022/11/15 06:28:46;;;;;;;;;43.25;35.75;;;;;12.99;82.01;101611.09;146618;615;46010;-73
2022/11/15 06:31:46;;;;;;;;;45.50;37.00;;;;;13.06;81.46;101615.84;146614;581;46017;-74
2022/11/15 06:34:38;;;;;;;;;47.75;38.75;;;;;13.16;81.69;101612.03;146618;590;46010;-72
2022/11/15 06:37:30;;;;;;;;;45.50;35.00;;;;;13.25;81.72;101615.16;146619;625;46012;-75
2022/11/15 06:40:38;;;;;;;;;40.25;33.25;;;;;13.37;81.35;101607.13;146619;704;46021;-73
2022/11/15 06:43:31;;;;;;;;;44.50;36.50;;;;;13.49;81.23;101618.22;146618;649;46014;-74
2022/11/15 06:46:27;;;;;;;;;36.00;31.75;;;;;13.56;80.59;101611.62;146622;591;46010;-86
2022/11/15 06:49:28;;;;;;;;;40.50;31.50;;;;;13.68;81.00;101624.41;146615;581;46016;-76
2022/11/15 06:52:32;;;;;;;;;35.50;30.00;;;;;13.81;81.06;101619.91;146614;630;46010;-78
2022/11/15 06:55:31;;;;;;;;;31.50;28.25;;;;;14.00;81.43;101620.88;146616;630;46012;-78
2022/11/15 06:58:38;;;;;;;;;;;;;;;;;;;;;
2022/11/15 07:01:40;;;;;;;;;31.50;28.25;;;;;14.36;79.79;101618.31;146616;585;45916;-78
2022/11/15 07:04:38;;;;;;;;;33.75;31.25;;;;;14.47;78.76;101614.53;146622;631;45020;-78
2022/11/15 07:07:42;;;;;;;;;37.00;31.50;;;;;14.55;78.74;101614.13;146615;564;46037;-79
2022/11/15 07:10:42;;;;;;;;;34.25;28.50;;;;;14.63;78.57;101604.06;146620;588;46020;-78
2022/11/15 07:13:42;;;;;;;;;36.25;32.00;;;;;14.73;77.42;101601.06;146619;563;46012;-79
2022/11/15 07:16:46;;;;;;;;;33.50;31.25;;;;;14.79;77.60;101605.69;146617;564;46021;-78
2022/11/15 07:19:41;;;;;;;;;34.50;28.75;;;;;14.87;77.35;101606.06;146618;629;46012;-79
2022/11/15 07:22:35;;;;;;;;;37.25;33.00;;;;;14.96;77.69;101599.56;146622;628;46010;-78
2022/11/15 07:25:28;;;;;;;;;38.75;32.50;;;;;15.10;76.99;101607.16;146618;583;46016;-80
2022/11/15 07:28:20;;;;;;;;;35.50;29.25;;;;;15.20;76.77;101604.13;146617;611;46020;-79
2022/11/15 07:31:14;;;;;;;;;36.00;29.00;;;;;15.31;76.66;101608.16;146615;593;46918;-78
2022/11/15 07:34:06;;;;;;;;;45.00;35.75;;;;;15.38;75.89;101598.88;146619;620;46012;-79
2022/11/15 07:36:58;;;;;;;;;47.25;38.50;;;;;15.45;75.50;101600.94;146615;605;46918;-80
2022/11/15 07:39:52;;;;;;;;;43.25;36.00;;;;;15.52;75.82;101600.41;146619;608;46010;-80
2022/11/15 07:42:59;;;;;;;;;42.50;36.25;;;;;15.61;75.77;101605.16;146616;636;46012;-80
2022/11/15 07:45:53;;;;;;;;;44.00;35.25;;;;;15.67;75.05;101603.75;146615;565;46011;-81
2022/11/15 07:48:48;;;;;;;;;43.75;34.25;;;;;15.74;75.07;101601.41;146619;597;46012;-81
2022/11/15 07:51:46;;;;;;;;;42.50;35.00;;;;;15.81;75.27;101601.72;146620;569;45020;-81
2022/11/15 07:54:51;;;;;;;;;;;;;;;;;;;;;
2022/11/15 07:57:49;;;;;;;;;44.50;34.50;;;;;15.96;74.55;101595.38;146619;597;46020;-79
2022/11/15 08:00:46;;;;;;;;;44.00;36.00;;;;;16.02;74.12;101595.66;146614;564;46016;-79
2022/11/15 08:03:49;;;;;;;;;46.75;36.50;;;;;16.07;74.60;101605.47;146621;624;46020;-80
2022/11/15 08:06:46;;;;;;;;;43.25;34.25;;;;;16.12;73.60;101609.19;146619;615;46012;-78
2022/11/15 08:09:55;;;;;;;;;36.75;31.50;;;;;16.17;73.49;101606.78;146617;640;46010;-77
2022/11/15 08:13:12;;;;;;;;;46.25;37.00;;;;;16.20;74.01;101599.06;146618;576;46016;-81
2022/11/15 08:16:16;;;;;;;;;;;;;;;;;;;;;
2022/11/15 08:19:13;;;;;;;;;37.50;32.00;;;;;16.28;73.73;101608.09;146616;580;46018;-79
2022/11/15 08:22:27;;;;;;;;;38.50;33.50;;;;;16.34;73.72;101599.63;146619;570;46021;-81
2022/11/15 08:25:24;;;;;;;;;44.00;36.25;;;;;16.40;74.41;101594.62;146612;601;47016;-79
2022/11/15 08:28:16;;;;;;;;;45.50;36.50;;;;;16.45;73.67;101605.28;146619;613;46021;-81
2022/11/15 08:31:21;;;;;;;;;46.50;37.25;;;;;16.49;74.18;101602.87;146614;570;46016;-80
2022/11/15 08:34:32;;;;;;;;;;;;;;;;;;;;;
2022/11/15 08:37:32;;;;;;;;;45.00;39.00;;;;;16.61;73.16;101597.25;146614;564;46016;-82
2022/11/15 08:40:30;;;;;;;;;46.25;37.75;;;;;16.63;73.57;101603.41;146619;593;46020;-79
2022/11/15 08:43:23;;;;;;;;;48.75;39.00;;;;;16.68;73.54;101601.00;146618;590;46013;-79
2022/11/15 08:46:24;;;;;;;;;50.00;38.00;;;;;16.72;72.94;101602.91;146618;563;46020;-81
2022/11/15 08:49:25;;;;;;;;;53.50;41.25;;;;;16.75;72.94;101598.72;146615;574;46016;-79
2022/11/15 08:52:19;;;;;;;;;57.25;44.50;;;;;16.53;73.43;101562.00;146618;625;46018;-79
2022/11/15 08:55:20;;;;;;;;;56.00;45.00;;;;;16.79;73.68;101587.56;146617;667;46014;-79
2022/11/15 08:58:18;;;;;;;;;52.25;42.50;;;;;16.77;73.53;101590.94;146620;594;46027;-79
2022/11/15 09:01:20;;;;;;;;;51.50;42.75;;;;;16.75;74.39;101587.31;146608;594;46016;-79
2022/11/15 09:04:25;;;;;;;;;56.00;43.00;;;;;16.73;74.81;101583.72;146618;750;46020;-79
2022/11/15 09:07:22;;;;;;;;;52.25;41.00;;;;;16.70;74.80;101568.81;146615;600;46016;-79
2022/11/15 09:10:37;;;;;;;;;51.50;39.75;;;;;15.30;75.09;101336.38;146617;634;46020;-79
2022/11/15 09:13:38;;;;;;;;;52.25;41.75;;;;;16.68;75.14;101569.59;146616;579;46015;-81
2022/11/15 09:16:39;;;;;;;;;49.75;41.00;;;;;16.67;75.07;101563.47;146619;569;46020;-79
2022/11/15 09:19:34;;;;;;;;;54.25;42.00;;;;;16.66;74.84;101561.66;146617;579;46015;-79
2022/11/15 09:22:26;;;;;;;;;46.50;37.75;;;;;16.68;75.37;101560.00;146620;581;46010;-79
2022/11/15 09:25:21;;;;;;;;;55.50;43.75;;;;;16.72;75.27;101558.38;146614;635;46014;-81
2022/11/15 09:28:21;;;;;;;;;48.75;38.25;;;;;16.75;74.99;101550.66;146617;595;46010;-79
2022/11/15 09:31:21;;;;;;;;;55.00;42.50;;;;;16.74;75.59;101541.03;146617;584;46012;-80
2022/11/15 09:34:32;;;;;;;;;47.50;38.00;;;;;15.38;74.41;101306.19;146619;569;46020;-79
2022/11/15 09:37:35;;;;;;;;;54.75;42.50;;;;;16.79;75.68;101542.09;146615;628;46016;-79
2022/11/15 09:40:42;;;;;;;;;55.25;43.75;;;;;16.76;74.88;101526.28;146619;607;46010;-79
2022/11/15 09:44:12;;;;;;;;;56.50;44.25;;;;;16.72;75.86;101538.31;146616;581;46012;-79
2022/11/15 09:47:47;;;;;;;;;;;;;;;;;;;;;
2022/11/15 09:50:58;;;;;;;;;53.75;43.00;;;;;16.67;75.84;101521.56;146618;626;46013;-79
2022/11/15 09:54:31;;;;;;;;;53.50;42.00;;;;;15.29;75.43;101270.13;146621;576;46012;-80
2022/11/15 09:57:58;;;;;;;;;52.75;42.25;;;;;15.41;75.12;101280.19;146616;763;46017;-78
2022/11/15 10:01:15;;;;;;;;;50.50;39.50;;;;;16.75;75.48;101507.06;146620;780;46020;-80
2022/11/15 10:04:12;;;;;;;;;53.25;41.75;;;;;16.79;75.27;101494.97;146616;647;46016;-82
2022/11/15 10:07:42;;;;;;;;;51.50;40.50;;;;;16.80;74.50;101497.66;146621;697;46020;-83
2022/11/15 10:10:50;;;;;;;;;52.00;39.25;;;;;16.79;74.33;101485.41;146615;658;46012;-81
2022/11/15 10:13:56;;;;;;;;;46.25;38.25;;;;;16.77;74.48;101481.81;146618;604;46021;-82
2022/11/15 10:17:29;;;;;;;;;44.25;34.00;;;;;16.80;74.44;101487.19;146616;637;46012;-80
2022/11/15 10:20:56;;;;;;;;;47.75;37.25;;;;;15.24;74.19;101196.81;146616;565;47021;-83
2022/11/15 10:23:57;;;;;;;;;43.75;36.00;;;;;16.92;73.95;101478.00;146617;606;46016;-79
2022/11/15 10:26:53;;;;;;;;;47.50;38.00;;;;;16.97;74.41;101473.81;146615;668;46020;-80
2022/11/15 10:29:57;;;;;;;;;48.75;39.00;;;;;16.99;74.07;101462.56;146613;617;46919;-82
2022/11/15 10:33:27;;;;;;;;;;;;;;;;;;;;;
2022/11/15 10:36:29;;;;;;;;;44.50;36.25;;;;;17.09;73.77;101459.44;146614;616;46017;-81
2022/11/15 10:39:37;;;;;;;;;36.75;33.00;;;;;15.80;73.16;101217.28;146617;682;46020;-80
2022/11/15 10:42:44;;;;;;;;;41.50;34.00;;;;;17.24;72.88;101445.09;146617;695;46918;-79
2022/11/15 10:45:44;;;;;;;;;48.25;36.25;;;;;17.33;72.53;101434.06;146619;618;46010;-79
2022/11/15 10:48:46;;;;;;;;;42.75;35.75;;;;;17.40;72.47;101434.31;146615;633;46918;-78
2022/11/15 10:52:00;;;;;;;;;;;;;;;;;;;;;
2022/11/15 10:55:38;;;;;;;;;40.25;34.75;;;;;17.57;71.29;101420.88;146619;580;46012;-82
2022/11/15 10:58:59;;;;;;;;;37.75;31.75;;;;;17.67;71.24;101425.62;146619;621;46010;-80
2022/11/15 11:02:00;;;;;;;;;38.75;31.75;;;;;17.70;71.03;101415.22;146615;612;46918;-80
2022/11/15 11:05:01;;;;;;;;;45.75;35.00;;;;;17.73;70.48;101399.59;146615;593;46021;-80
2022/11/15 11:08:13;;;;;;;;;39.25;33.00;;;;;17.80;70.76;101403.34;146616;590;46016;-83
2022/11/15 11:11:18;;;;;;;;;39.75;34.00;;;;;16.04;70.60;101081.25;146619;594;46021;-83
2022/11/15 11:14:32;;;;;;;;;45.50;34.00;;;;;18.00;70.46;101384.75;146620;574;46012;-82
2022/11/15 11:18:04;;;;;;;;;43.25;35.25;;;;;15.84;69.46;101009.97;146621;634;46010;-80
2022/11/15 11:21:04;;;;;;;;;39.25;33.25;;;;;16.95;68.93;101182.09;146613;569;46037;-76
2022/11/15 11:25:13;;;;;;;;;40.00;31.75;;;;;18.10;69.00;101364.03;146617;637;46020;-80
2022/11/15 11:28:42;;;;;;;;;34.50;29.50;;;;;18.27;65.89;101364.56;146615;580;46016;-80
2022/11/15 11:32:01;;;;;;;;;32.50;28.50;;;;;18.43;66.72;101364.19;146617;626;46012;-82
2022/11/15 11:35:28;;;;;;;;;33.75;27.75;;;;;18.56;66.35;101362.78;146617;650;46013;-79
2022/11/15 11:39:26;;;;;;;;;;;;;;;;;;;;;
2022/11/15 11:43:08;;;;;;;;;35.00;28.75;;;;;17.80;67.32;101167.25;146613;604;46924;-83
2022/11/15 11:46:59;;;;;;;;;27.00;26.25;;;;;18.89;65.54;101360.28;146617;573;47010;-82
2022/11/15 11:50:33;;;;;;;;;30.25;23.50;;;;;16.55;66.20;100951.25;146615;605;46017;-81
2022/11/15 11:53:55;;;;;;;;;31.25;28.00;;;;;17.35;66.24;101113.47;146618;677;46020;-84
2022/11/15 11:56:59;;;;;;;;;29.00;26.75;;;;;18.72;65.54;101346.63;146616;587;46017;-82
2022/11/15 12:00:36;;;;;;;;;28.75;26.00;;;;;18.65;66.01;101340.31;146618;615;46012;-80
2022/11/15 12:04:19;;;;;;;;;35.75;31.00;;;;;18.54;65.30;101333.00;146612;592;46016;-80
2022/11/15 12:07:36;;;;;;;;;32.75;30.00;;;;;18.37;65.86;101330.75;146619;564;46020;-79
2022/11/15 12:10:42;;;;;;;;;37.00;30.00;;;;;18.24;66.41;101316.38;146616;591;46015;-80
2022/11/15 12:13:48;;;;;;;;;34.50;28.75;;;;;18.21;66.62;101331.16;146616;564;46021;-79
2022/11/15 12:17:05;;;;;;;;;36.00;30.25;;;;;18.12;66.85;101323.00;146614;570;46012;-77
2022/11/15 12:20:11;;;;;;;;;;;;;;;;;;;;;
2022/11/15 12:23:48;;;;;;;;;32.75;28.00;;;;;15.84;68.36;100945.50;146614;599;46916;-80
2022/11/15 12:27:06;;;;;;;;;36.25;30.50;;;;;17.90;66.70;101316.22;146617;570;46011;-79
2022/11/15 12:30:15;;;;;;;;;32.50;28.00;;;;;17.85;67.60;101312.53;146617;659;46916;-79
2022/11/15 12:33:10;;;;;;;;;29.75;28.00;;;;;17.07;67.09;101183.38;146620;583;46021;-79
2022/11/15 12:36:27;;;;;;;;;35.75;28.75;;;;;17.80;67.08;101308.91;146613;572;46016;-78
2022/11/15 12:39:27;;;;;;;;;41.00;33.25;;;;;17.74;67.74;101302.59;146620;639;46030;-78
2022/11/15 12:43:06;;;;;;;;;41.50;30.50;;;;;16.34;68.84;101065.72;146616;571;46017;-78
2022/11/15 12:46:22;;;;;;;;;;;;;;;;;;;;;
2022/11/15 12:49:52;;;;;;;;;41.50;32.50;;;;;16.34;69.31;101050.03;146614;587;46018;-80
2022/11/15 12:53:32;;;;;;;;;43.25;34.00;;;;;16.43;68.80;101059.91;146619;614;46020;-78
2022/11/15 12:56:29;;;;;;;;;42.50;34.25;;;;;17.81;68.59;101289.69;146613;651;46017;-79
2022/11/15 13:00:01;;;;;;;;;34.75;30.00;;;;;16.57;69.66;101053.38;146618;570;46020;-79
2022/11/15 13:03:28;;;;;;;;;40.00;33.50;;;;;16.65;67.59;101057.13;146613;588;47920;-80
2022/11/15 13:06:55;;;;;;;;;41.00;33.75;;;;;15.66;69.52;100884.72;146616;641;46020;-82
2022/11/15 13:10:30;;;;;;;;;35.75;31.75;;;;;15.72;69.00;100895.41;146614;691;46033;-80
2022/11/15 13:13:47;;;;;;;;;32.00;29.00;;;;;15.86;68.54;100917.69;146620;589;45020;-80
2022/11/15 13:17:27;;;;;;;;;40.75;34.00;;;;;17.83;69.34;101262.66;146611;565;46913;-79
2022/11/15 13:20:48;;;;;;;;;37.25;30.25;;;;;17.73;68.48;101256.22;146615;597;46010;-79
2022/11/15 13:23:52;;;;;;;;;31.00;27.50;;;;;17.72;68.08;101264.03;146612;604;46032;-80
2022/11/15 13:27:21;;;;;;;;;27.75;26.75;;;;;15.30;68.87;100842.56;146620;610;46021;-78
2022/11/15 13:30:40;;;;;;;;;26.00;25.25;;;;;15.23;67.74;100844.97;146612;587;46915;-78
2022/11/15 13:34:05;;;;;;;;;33.25;30.25;;;;;17.49;69.29;101247.59;146619;595;46021;-78
2022/11/15 13:37:46;;;;;;;;;34.75;28.75;;;;;16.10;68.75;101011.72;146612;630;46016;-80
2022/11/15 13:40:46;;;;;;;;;32.25;26.50;;;;;17.38;70.16;101242.00;146620;635;46021;-78
2022/11/15 13:44:01;;;;;;;;;32.50;29.00;;;;;17.38;69.22;101244.63;146611;617;46016;-76
2022/11/15 13:47:29;;;;;;;;;32.00;28.00;;;;;16.02;69.31;101001.88;146619;583;46020;-80
2022/11/15 13:50:28;;;;;;;;;35.50;31.00;;;;;17.36;69.06;101233.22;146612;608;46016;-78
2022/11/15 13:53:30;;;;;;;;;33.00;28.50;;;;;17.34;70.00;101228.75;146621;584;45020;-80
2022/11/15 13:56:26;;;;;;;;;31.50;26.25;;;;;17.29;69.35;101231.25;146610;599;46014;-77
2022/11/15 13:59:41;;;;;;;;;26.00;23.25;;;;;17.25;69.79;101221.47;146617;630;46020;-78
2022/11/15 14:02:38;;;;;;;;;32.50;28.00;;;;;17.23;70.03;101217.94;146613;664;46014;-76
2022/11/15 14:05:46;;;;;;;;;;;;;;;;;;;;;
2022/11/15 14:09:06;;;;;;;;;33.75;29.50;;;;;16.02;69.26;101010.59;146614;589;46913;-78
2022/11/15 14:12:29;;;;;;;;;34.25;28.50;;;;;14.73;70.05;100785.75;146619;648;46012;-79
2022/11/15 14:15:39;;;;;;;;;30.50;27.75;;;;;17.17;69.95;101220.37;146614;566;46016;-78
2022/11/15 14:19:02;;;;;;;;;31.25;28.00;;;;;14.54;70.22;100764.22;146620;564;46010;-79
2022/11/15 14:22:37;;;;;;;;;32.50;28.00;;;;;17.07;70.64;101204.34;146619;608;46012;-80
2022/11/15 14:25:53;;;;;;;;;33.25;28.75;;;;;17.06;69.83;101207.78;146621;588;46010;-81
2022/11/15 14:29:23;;;;;;;;;33.25;29.50;;;;;14.57;69.72;100766.06;146619;585;46916;-79
2022/11/15 14:32:54;;;;;;;;;30.50;27.25;;;;;17.12;70.06;101208.84;146619;572;47010;-79
2022/11/15 14:35:55;;;;;;;;;30.25;27.25;;;;;17.12;70.27;101217.59;146616;590;46916;-79
2022/11/15 14:38:57;;;;;;;;;29.50;25.50;;;;;17.11;70.27;101210.56;146618;601;46010;-79
2022/11/15 14:41:56;;;;;;;;;32.00;28.25;;;;;17.07;70.04;101204.34;146619;676;46012;-79
2022/11/15 14:44:59;;;;;;;;;31.75;29.25;;;;;17.06;70.32;101206.91;146617;598;46020;-82
2022/11/15 14:48:04;;;;;;;;;24.75;21.25;;;;;15.95;70.48;101024.31;146619;567;46012;-79
2022/11/15 14:51:05;;;;;;;;;35.00;30.00;;;;;17.02;70.58;101208.53;146616;586;47020;-79